TimeICT,TemperatureF,Dew PointF,Humidity,Sea Level PressureIn,VisibilityMPH,Wind Direction,Wind SpeedMPH,Gust SpeedMPH,PrecipitationIn,Events,Conditions,WindDirDegrees,DateUTC
12:00 AM,75.2,73.4,94,29.89,5.0,Calm,Calm,-,N/A,,Mostly Cloudy,0,2013-09-09 17:00:00
12:30 AM,78.8,73.4,83,29.89,5.0,WNW,11.5,-,N/A,,Mostly Cloudy,300,2013-09-09 17:30:00
1:00 AM,77,73,85,29.83,5,Calm,Calm,,,,Mist,,2013-09-09 18:00:00
1:00 AM,75.2,69.8,83,29.86,5.0,NNW,9.2,-,N/A,,Mostly Cloudy,330,2013-09-09 18:00:00
1:30 AM,75.2,69.8,83,29.86,5.0,NNW,6.9,-,N/A,,Mostly Cloudy,330,2013-09-09 18:30:00
2:00 AM,75.2,69.8,83,29.83,4.3,NNW,10.4,-,N/A,,Mostly Cloudy,330,2013-09-09 19:00:00
2:30 AM,75.2,69.8,83,29.83,4.3,WNW,8.1,-,N/A,,Mostly Cloudy,300,2013-09-09 19:30:00
3:00 AM,77.0,71.6,83,29.83,4.3,NW,8.1,-,N/A,,Mostly Cloudy,310,2013-09-09 20:00:00
3:30 AM,77.0,71.6,83,29.83,0.9,NW,8.1,-,N/A,Rain,Heavy Rain,310,2013-09-09 20:30:00
4:00 AM,75.2,71.6,89,29.83,4.3,West,10.4,-,N/A,Rain,Light Rain,280,2013-09-09 21:00:00
4:30 AM,75.2,71.6,89,29.80,1.9,West,12.7,-,N/A,Rain,Rain,280,2013-09-09 21:30:00
5:00 AM,75.2,71.6,89,29.80,4.3,West,3.5,-,N/A,,Mostly Cloudy,260,2013-09-09 22:00:00
5:30 AM,73.4,71.6,94,29.80,4.3,Calm,Calm,-,N/A,,Mostly Cloudy,0,2013-09-09 22:30:00
6:00 AM,75.2,71.6,89,29.80,4.3,Variable,2.3,-,N/A,,Mostly Cloudy,0,2013-09-09 23:00:00
6:30 AM,73.4,71.6,94,29.83,5.0,Calm,Calm,-,N/A,,Mostly Cloudy,0,2013-09-09 23:30:00
7:00 AM,75,73,93,29.79,6,Calm,Calm,,,,Mist,,2013-09-10 00:00:00
7:00 AM,77.0,71.6,83,29.83,5.0,NNW,5.8,-,N/A,,Mostly Cloudy,330,2013-09-10 00:00:00
7:30 AM,77.0,71.6,83,29.83,0.9,West,6.9,-,N/A,Rain,Heavy Rain,270,2013-09-10 00:30:00
8:00 AM,75.2,71.6,89,29.86,1.9,Variable,3.5,-,N/A,Rain,Rain,0,2013-09-10 01:00:00
8:30 AM,77.0,73.4,89,29.86,4.3,West,5.8,-,N/A,,Mostly Cloudy,270,2013-09-10 01:30:00
9:00 AM,78.8,73.4,83,29.86,4.3,Variable,3.5,-,N/A,,Mostly Cloudy,0,2013-09-10 02:00:00
9:30 AM,80.6,75.2,84,29.86,5.6,WNW,4.6,-,N/A,,Mostly Cloudy,290,2013-09-10 02:30:00
10:00 AM,80.6,73.4,79,29.86,6.2,WNW,10.4,-,N/A,,Mostly Cloudy,300,2013-09-10 03:00:00
10:30 AM,82.4,73.4,74,29.83,6.2,West,9.2,-,N/A,,Mostly Cloudy,270,2013-09-10 03:30:00
11:00 AM,84.2,73.4,70,29.83,5.6,West,9.2,-,N/A,,Mostly Cloudy,280,2013-09-10 04:00:00
11:30 AM,84.2,73.4,70,29.83,1.9,West,11.5,-,N/A,Rain,Rain,280,2013-09-10 04:30:00
12:00 PM,75.2,71.6,89,29.86,0.6,WNW,12.7,-,N/A,Rain,Rain,300,2013-09-10 05:00:00
12:30 PM,75.2,71.6,89,29.83,3.7,WNW,5.8,-,N/A,Rain,Light Rain,300,2013-09-10 05:30:00
1:00 PM,75.2,71.6,89,29.83,1.2,WNW,20.7,-,N/A,Rain,Heavy Rain,290,2013-09-10 06:00:00
1:30 PM,77.0,71.6,83,29.80,3.1,West,16.1,-,N/A,Rain,Light Rain,280,2013-09-10 06:30:00
2:00 PM,77.0,73.4,89,29.77,3.7,WNW,12.7,-,N/A,Rain,Light Rain,290,2013-09-10 07:00:00
2:30 PM,78.8,73.4,83,29.77,4.3,WNW,10.4,-,N/A,,Mostly Cloudy,300,2013-09-10 07:30:00
3:00 PM,78.8,73.4,83,29.77,4.3,NW,9.2,-,N/A,Rain,Light Rain,310,2013-09-10 08:00:00
3:30 PM,80.6,75.2,84,29.74,4.3,WNW,11.5,-,N/A,,Mostly Cloudy,290,2013-09-10 08:30:00
4:00 PM,80.6,73.4,79,29.74,5.6,WNW,11.5,-,N/A,,Mostly Cloudy,290,2013-09-10 09:00:00
4:30 PM,80.6,73.4,79,29.74,5.6,WNW,10.4,-,N/A,,Mostly Cloudy,290,2013-09-10 09:30:00
5:00 PM,80.6,71.6,74,29.74,5.0,West,15.0,26.5,N/A,,Mostly Cloudy,270,2013-09-10 10:00:00
5:30 PM,80.6,73.4,79,29.74,4.3,WNW,11.5,-,N/A,,Mostly Cloudy,290,2013-09-10 10:30:00
6:00 PM,78.8,73.4,83,29.77,3.1,West,11.5,-,N/A,Rain,Light Rain,280,2013-09-10 11:00:00
6:30 PM,77.0,73.4,89,29.77,4.3,WNW,10.4,-,N/A,,Mostly Cloudy,300,2013-09-10 11:30:00
7:00 PM,79,76,88,29.74,2,WNW,13.8,,,Rain,Light Rain,290,2013-09-10 12:00:00
7:00 PM,75.2,71.6,89,29.77,3.1,West,15.0,-,N/A,Rain,Light Rain,270,2013-09-10 12:00:00
7:30 PM,77.0,73.4,89,29.77,4.3,Calm,Calm,-,N/A,,Mostly Cloudy,0,2013-09-10 12:30:00
8:00 PM,77.0,73.4,89,29.80,3.1,SSW,4.6,-,N/A,Rain,Light Rain,210,2013-09-10 13:00:00
8:30 PM,77.0,73.4,89,29.80,3.1,SW,3.5,-,N/A,Rain,Light Rain,230,2013-09-10 13:30:00
9:00 PM,77.0,73.4,89,29.80,4.3,SSW,3.5,-,N/A,Rain,Light Rain,200,2013-09-10 14:00:00
9:30 PM,77.0,73.4,89,29.83,4.3,South,3.5,-,N/A,Rain,Light Rain,190,2013-09-10 14:30:00
10:00 PM,77.0,73.4,89,29.83,5.0,Calm,Calm,-,N/A,,Mostly Cloudy,0,2013-09-10 15:00:00
10:30 PM,77.0,73.4,89,29.83,0.6,WSW,11.5,-,N/A,Rain,Heavy Rain,250,2013-09-10 15:30:00
11:00 PM,77.0,73.4,89,29.83,3.1,West,23.0,-,N/A,Rain,Light Rain,270,2013-09-10 16:00:00
11:30 PM,78.8,73.4,83,29.83,4.3,West,15.0,-,N/A,,Mostly Cloudy,260,2013-09-10 16:30:00